Time;durP1;ratioP1;P1;durP2;ratioP2;P2;SDS_P1;SDS_P2;PMS_P1;PMS_P2;Temp;Humidity;BMP_temperature;BMP_pressure;BME280_temperature;BME280_humidity;BME280_pressure;Samples;Min_cycle;Max_cycle;Signal;HPM_P1;HPM_P2
2021/07/06 00:00:14;;;;;;;1.00;0.90;;;;;;;17.69;100.00;100571.25;5014358;28;20949;-74
2021/07/06 00:02:42;;;;;;;1.10;1.00;;;;;;;17.75;100.00;100573.44;5014614;28;20446;-74
2021/07/06 00:05:09;;;;;;;1.53;1.20;;;;;;;17.73;100.00;100572.13;5014190;28;20459;-74
2021/07/06 00:07:36;;;;;;;1.83;1.00;;;;;;;17.64;100.00;100575.03;5014158;28;20976;-74
2021/07/06 00:10:03;;;;;;;1.80;1.00;;;;;;;17.72;100.00;100568.59;5014164;28;20448;-74
2021/07/06 00:12:31;;;;;;;1.23;0.97;;;;;;;17.70;100.00;100568.13;5014156;28;20953;-74
2021/07/06 00:14:58;;;;;;;1.20;1.10;;;;;;;17.60;100.00;100568.66;5014598;28;20440;-74
2021/07/06 00:17:25;;;;;;;2.00;1.20;;;;;;;17.61;100.00;100582.00;5014281;28;20444;-74
2021/07/06 00:19:52;;;;;;;1.53;0.80;;;;;;;17.63;100.00;100585.19;5014000;28;20540;-74
2021/07/06 00:22:19;;;;;;;4.33;1.00;;;;;;;17.61;100.00;100581.19;5014240;28;20447;-74
2021/07/06 00:24:46;;;;;;;1.40;1.23;;;;;;;17.63;99.54;100581.66;5014377;28;20459;-74
2021/07/06 00:27:12;;;;;;;0.80;0.80;;;;;;;17.63;99.09;100581.66;5013741;28;20887;-73
2021/07/06 00:29:40;;;;;;;0.83;0.80;;;;;;;17.65;99.92;100577.41;5014159;28;20459;-74
2021/07/06 00:32:07;;;;;;;1.00;0.90;;;;;;;17.62;100.00;100574.59;5014080;28;20444;-74
2021/07/06 00:34:34;;;;;;;1.10;1.00;;;;;;;17.60;100.00;100582.34;5013802;28;20804;-74
2021/07/06 00:37:00;;;;;;;1.20;0.77;;;;;;;17.66;100.00;100589.16;5013695;28;20965;-74
2021/07/06 00:39:27;;;;;;;1.53;1.10;;;;;;;17.69;100.00;100583.00;5013998;28;20471;-74
2021/07/06 00:41:53;;;;;;;1.17;0.80;;;;;;;17.73;100.00;100588.56;5013990;28;21980;-74
2021/07/06 00:44:21;;;;;;;2.30;1.80;;;;;;;17.72;100.00;100585.03;5013405;28;20938;-74
2021/07/06 00:46:49;;;;;;;1.10;0.80;;;;;;;17.72;100.00;100584.25;5013448;28;20491;-74
2021/07/06 00:49:15;;;;;;;1.00;0.90;;;;;;;17.75;100.00;100584.38;5017019;28;20883;-73
2021/07/06 00:51:42;;;;;;;1.37;0.80;;;;;;;17.82;100.00;100573.59;5033545;28;20439;-71
2021/07/06 00:54:10;;;;;;;0.70;0.70;;;;;;;17.88;100.00;100576.88;5033181;28;20439;-72
2021/07/06 00:56:37;;;;;;;1.10;0.70;;;;;;;17.87;100.00;100578.03;5033647;28;20482;-74
2021/07/06 00:59:04;;;;;;;1.07;0.90;;;;;;;17.86;100.00;100571.75;5033382;28;20478;-75
2021/07/06 01:01:31;;;;;;;1.43;1.10;;;;;;;17.85;100.00;100572.91;5039690;28;20450;-74
2021/07/06 01:03:58;;;;;;;2.20;1.13;;;;;;;17.88;100.00;100577.69;5033384;28;20453;-74
2021/07/06 01:06:25;;;;;;;0.80;0.70;;;;;;;17.90;100.00;100574.59;5033282;28;20479;-74
2021/07/06 01:08:52;;;;;;;1.23;0.90;;;;;;;17.85;100.00;100569.38;5033211;28;20467;-74
2021/07/06 01:11:19;;;;;;;2.67;1.30;;;;;;;17.86;100.00;100569.00;5032934;28;21051;-74
2021/07/06 01:13:45;;;;;;;1.13;1.03;;;;;;;17.86;100.00;100562.75;5033287;28;20849;-74
2021/07/06 01:16:12;;;;;;;1.23;1.13;;;;;;;17.87;100.00;100564.31;5033226;28;20443;-74
2021/07/06 01:18:38;;;;;;;2.13;0.80;;;;;;;17.79;100.00;100571.56;5033139;28;20471;-74
2021/07/06 01:21:06;;;;;;;1.17;1.07;;;;;;;17.78;100.00;100572.72;5033146;28;20824;-72
2021/07/06 01:23:34;;;;;;;12.60;1.80;;;;;;;17.78;100.00;100569.97;5032806;28;20948;-74
2021/07/06 01:26:03;;;;;;;2.00;1.27;;;;;;;17.74;100.00;100569.06;5032707;28;21003;-73
2021/07/06 01:28:30;;;;;;;2.27;1.47;;;;;;;17.67;100.00;100568.88;5033041;28;20478;-73
2021/07/06 01:30:56;;;;;;;2.50;1.03;;;;;;;17.67;100.00;100562.59;5033098;28;20447;-73
2021/07/06 01:33:24;;;;;;;1.13;0.87;;;;;;;17.69;100.00;100549.31;5033101;28;20448;-73
2021/07/06 01:35:51;;;;;;;1.27;1.07;;;;;;;17.61;100.00;100554.59;5032999;28;20450;-73
2021/07/06 01:38:18;;;;;;;1.73;1.00;;;;;;;17.64;100.00;100550.38;5032950;28;20508;-74
2021/07/06 01:40:46;;;;;;;2.73;1.60;;;;;;;17.62;100.00;100553.47;5032988;28;20462;-73
2021/07/06 01:43:13;;;;;;;0.90;0.90;;;;;;;17.60;100.00;100560.44;5033050;28;20821;-73
2021/07/06 01:45:40;;;;;;;1.70;1.00;;;;;;;17.62;100.00;100549.94;5032585;28;20850;-73
2021/07/06 01:48:06;;;;;;;1.27;1.17;;;;;;;17.60;100.00;100546.75;5032579;28;20475;-73
2021/07/06 01:50:35;;;;;;;0.80;0.80;;;;;;;17.59;100.00;100547.88;5018794;28;20443;-73
2021/07/06 01:53:04;;;;;;;1.63;0.67;;;;;;;17.56;100.00;100549.38;5012946;28;20432;-73
2021/07/06 01:55:33;;;;;;;1.40;0.70;;;;;;;17.49;100.00;100546.47;5013209;28;20444;-73
2021/07/06 01:58:04;;;;;;;1.10;1.00;;;;;;;17.52;100.00;100553.16;5016577;28;20468;-73
2021/07/06 02:00:32;;;;;;;0.90;0.90;;;;;;;17.54;100.00;100551.69;5016678;28;20932;-73
2021/07/06 02:02:59;;;;;;;1.30;1.03;;;;;;;17.45;100.00;100552.97;5016536;28;20949;-73
2021/07/06 02:05:28;;;;;;;0.87;0.87;;;;;;;17.46;100.00;100560.03;5016827;28;20452;-73
2021/07/06 02:07:55;;;;;;;0.87;0.80;;;;;;;17.44;100.00;100557.63;5016403;28;20488;-73
2021/07/06 02:10:25;;;;;;;2.60;1.37;;;;;;;17.48;100.00;100558.53;5016874;28;20436;-73
2021/07/06 02:12:52;;;;;;;1.23;1.13;;;;;;;17.50;100.00;100555.47;5016714;28;20451;-73
2021/07/06 02:15:20;;;;;;;1.00;0.80;;;;;;;17.46;100.00;100558.09;5016617;28;20439;-74
2021/07/06 02:17:47;;;;;;;1.47;1.37;;;;;;;17.39;100.00;100550.47;5016690;28;20460;-74
2021/07/06 02:20:17;;;;;;;0.80;0.80;;;;;;;17.30;100.00;100558.03;5016256;28;20888;-74
2021/07/06 02:22:44;;;;;;;1.20;1.00;;;;;;;17.39;100.00;100558.69;5016923;28;20441;-74
2021/07/06 02:25:12;;;;;;;2.23;1.20;;;;;;;17.45;100.00;100556.50;5016464;28;20440;-74
2021/07/06 02:27:39;;;;;;;1.20;0.90;;;;;;;17.40;100.00;100546.59;5016296;28;20491;-74
2021/07/06 02:30:08;;;;;;;1.70;0.90;;;;;;;17.48;100.00;100547.56;5015977;28;20466;-74
2021/07/06 02:32:36;;;;;;;1.33;0.90;;;;;;;17.57;100.00;100544.69;5016235;28;20443;-74
2021/07/06 02:35:03;;;;;;;1.40;1.17;;;;;;;17.51;100.00;100535.94;5015942;28;20977;-70
2021/07/06 02:37:29;;;;;;;1.03;0.87;;;;;;;17.52;100.00;100531.25;5016106;28;20471;-70
2021/07/06 02:39:56;;;;;;;1.90;1.17;;;;;;;17.51;100.00;100538.66;5015874;28;20956;-70
2021/07/06 02:42:22;;;;;;;1.43;0.87;;;;;;;17.52;100.00;100536.72;5016153;28;20444;-70
2021/07/06 02:44:48;;;;;;;2.17;1.27;;;;;;;17.57;100.00;100533.72;5016090;28;20459;-69
2021/07/06 02:47:15;;;;;;;0.60;0.60;;;;;;;17.54;100.00;100528.97;5015739;28;20496;-69
2021/07/06 02:49:43;;;;;;;1.47;0.97;;;;;;;17.56;100.00;100526.66;5023104;28;20502;-70
2021/07/06 02:52:09;;;;;;;2.23;1.20;;;;;;;17.54;100.00;100518.81;5031120;28;20450;-69
2021/07/06 02:54:36;;;;;;;1.30;1.00;;;;;;;17.59;100.00;100523.25;5029227;28;20424;-70
2021/07/06 02:57:04;;;;;;;1.37;0.97;;;;;;;17.62;100.00;100525.28;5016169;28;20447;-70
2021/07/06 02:59:31;;;;;;;0.80;0.67;;;;;;;17.64;100.00;100522.97;5015793;28;20474;-70
2021/07/06 03:01:57;;;;;;;1.00;0.93;;;;;;;17.63;100.00;100504.97;5022563;28;20450;-71
2021/07/06 03:04:23;;;;;;;1.13;1.00;;;;;;;17.59;100.00;100504.06;5020803;28;20463;-69
2021/07/06 03:06:51;;;;;;;1.57;0.97;;;;;;;17.56;100.00;100507.50;5028613;28;20512;-70
2021/07/06 03:09:18;;;;;;;0.90;0.90;;;;;;;17.51;100.00;100508.53;5014729;28;20479;-70
2021/07/06 03:11:45;;;;;;;0.97;0.90;;;;;;;17.49;100.00;100518.28;5023165;28;20442;-70
2021/07/06 03:14:11;;;;;;;0.80;0.60;;;;;;;17.45;100.00;100512.69;5035574;28;20444;-70
2021/07/06 03:16:38;;;;;;;1.13;0.90;;;;;;;17.46;100.00;100516.22;5035558;28;20435;-70
2021/07/06 03:19:04;;;;;;;1.57;0.90;;;;;;;17.48;100.00;100519.41;5035130;28;20524;-70
2021/07/06 03:21:31;;;;;;;0.77;0.77;;;;;;;17.52;100.00;100518.34;5034946;28;20479;-70
2021/07/06 03:23:59;;;;;;;1.47;1.00;;;;;;;17.56;100.00;100511.03;5026923;28;20803;-70
2021/07/06 03:26:25;;;;;;;1.67;1.03;;;;;;;17.57;100.00;100520.03;5015308;28;20491;-70
2021/07/06 03:28:52;;;;;;;1.20;0.80;;;;;;;17.61;100.00;100508.03;5015209;28;20468;-71
2021/07/06 03:31:18;;;;;;;2.37;1.07;;;;;;;17.67;100.00;100510.53;5015237;28;20467;-71
2021/07/06 03:33:45;;;;;;;1.27;0.93;;;;;;;17.70;100.00;100515.28;5015175;28;20444;-71
2021/07/06 03:36:11;;;;;;;1.07;0.80;;;;;;;17.74;100.00;100503.31;5015379;28;20440;-71
2021/07/06 03:38:38;;;;;;;1.00;0.90;;;;;;;17.80;100.00;100510.16;5015061;28;20842;-71
2021/07/06 03:41:05;;;;;;;1.17;0.80;;;;;;;17.86;100.00;100508.72;5015216;28;20444;-71
2021/07/06 03:43:32;;;;;;;1.17;1.07;;;;;;;17.90;100.00;100504.13;5015264;28;20447;-70
2021/07/06 03:45:58;;;;;;;3.70;1.33;;;;;;;17.95;100.00;100516.78;5014934;28;20444;-71
2021/07/06 03:48:25;;;;;;;1.33;1.07;;;;;;;17.99;100.00;100517.69;5014479;28;20495;-70
2021/07/06 03:50:51;;;;;;;1.13;0.87;;;;;;;18.04;100.00;100506.44;5014889;28;20444;-71
2021/07/06 03:53:18;;;;;;;1.27;1.13;;;;;;;18.08;100.00;100514.75;5031249;28;20808;-71
2021/07/06 03:55:44;;;;;;;1.10;1.00;;;;;;;18.15;100.00;100517.69;5028353;28;20447;-71
2021/07/06 03:58:12;;;;;;;1.90;0.80;;;;;;;18.18;100.00;100513.44;5025164;28;20474;-71
2021/07/06 04:00:39;;;;;;;1.43;1.10;;;;;;;18.22;100.00;100509.63;5015912;28;20791;-70
2021/07/06 04:03:05;;;;;;;1.10;1.00;;;;;;;18.28;100.00;100512.88;5019940;28;20443;-72
2021/07/06 04:05:32;;;;;;;1.47;1.17;;;;;;;18.31;100.00;100512.97;5034391;28;20454;-73
2021/07/06 04:07:58;;;;;;;2.77;1.47;;;;;;;18.36;100.00;100518.19;5034135;28;20494;-74
2021/07/06 04:10:25;;;;;;;2.20;1.40;;;;;;;18.44;100.00;100515.63;5034278;28;20447;-73
2021/07/06 04:12:51;;;;;;;1.23;0.90;;;;;;;18.40;100.00;100516.34;5034171;28;20445;-73
2021/07/06 04:15:20;;;;;;;0.73;0.73;;;;;;;18.39;100.00;100522.97;5028461;28;20450;-73
2021/07/06 04:17:47;;;;;;;1.10;0.87;;;;;;;18.43;100.00;100512.09;5014015;28;20992;-73
2021/07/06 04:20:15;;;;;;;2.40;1.27;;;;;;;18.51;100.00;100524.03;5014289;28;20448;-74
2021/07/06 04:22:42;;;;;;;9.80;1.20;;;;;;;18.53;100.00;100513.50;5014289;28;20436;-73
2021/07/06 04:25:10;;;;;;;1.23;0.87;;;;;;;18.59;100.00;100521.09;5014232;28;20439;-74
2021/07/06 04:27:37;;;;;;;1.43;1.17;;;;;;;18.66;100.00;100523.19;5014086;28;20495;-74
2021/07/06 04:30:04;;;;;;;0.90;0.73;;;;;;;18.65;100.00;100516.13;5014184;28;20451;-75
2021/07/06 04:32:32;;;;;;;1.10;1.00;;;;;;;18.67;100.00;100519.28;5014121;28;20799;-74
2021/07/06 04:34:59;;;;;;;1.00;0.90;;;;;;;18.70;100.00;100518.63;5013774;28;20968;-74
2021/07/06 04:37:25;;;;;;;1.23;1.10;;;;;;;18.72;100.00;100516.31;5014038;28;20456;-74
2021/07/06 04:39:51;;;;;;;2.33;1.17;;;;;;;18.75;100.00;100515.59;5013976;28;20447;-74
2021/07/06 04:42:18;;;;;;;1.63;1.17;;;;;;;18.81;100.00;100519.63;5014076;28;20448;-73
2021/07/06 04:44:45;;;;;;;2.90;1.20;;;;;;;18.82;100.00;100515.75;5013902;28;20440;-74
2021/07/06 04:47:11;;;;;;;1.57;1.47;;;;;;;18.85;100.00;100509.53;5013256;28;21095;-74
2021/07/06 04:49:39;;;;;;;1.33;1.13;;;;;;;18.89;100.00;100526.88;5020080;28;20914;-74
2021/07/06 04:52:06;;;;;;;2.43;0.97;;;;;;;19.00;100.00;100523.59;5021761;28;20443;-74
2021/07/06 04:54:33;;;;;;;1.53;1.43;;;;;;;19.09;100.00;100513.19;5033554;28;20443;-74
2021/07/06 04:56:59;;;;;;;1.43;1.00;;;;;;;19.18;100.00;100513.78;5033728;28;20447;-75
2021/07/06 04:59:26;;;;;;;2.20;1.73;;;;;;;19.27;100.00;100514.34;5033018;28;20546;-74
2021/07/06 05:01:52;;;;;;;4.70;1.30;;;;;;;19.36;99.84;100522.38;5033712;28;20440;-73
2021/07/06 05:04:19;;;;;;;1.10;0.90;;;;;;;19.48;98.17;100515.91;5033195;28;20450;-74
2021/07/06 05:06:47;;;;;;;0.90;0.67;;;;;;;19.63;97.63;100512.34;5032654;28;20956;-74
2021/07/06 05:09:13;;;;;;;1.20;1.10;;;;;;;19.77;96.88;100515.34;5033183;28;20474;-74
2021/07/06 05:11:39;;;;;;;1.47;1.30;;;;;;;19.88;95.83;100518.28;5033267;28;20447;-74
2021/07/06 05:14:06;;;;;;;1.13;1.03;;;;;;;20.01;95.53;100502.38;5033195;28;20460;-74
2021/07/06 05:16:33;;;;;;;1.57;1.10;;;;;;;20.07;95.98;100512.72;5033226;28;20445;-73
2021/07/06 05:18:59;;;;;;;0.93;0.83;;;;;;;20.15;94.75;100508.16;5033063;28;20983;-73
2021/07/06 05:21:26;;;;;;;1.20;1.10;;;;;;;20.24;94.06;100503.19;5032881;28;20948;-73
2021/07/06 05:23:54;;;;;;;1.43;1.13;;;;;;;20.29;94.58;100511.13;5032207;28;20454;-73
2021/07/06 05:26:20;;;;;;;1.57;1.03;;;;;;;20.28;94.85;100517.00;5025586;28;20475;-73
2021/07/06 05:28:46;;;;;;;2.03;1.23;;;;;;;20.26;94.03;100511.84;5013174;28;20487;-73
2021/07/06 05:31:13;;;;;;;1.03;0.93;;;;;;;20.31;94.25;100513.50;5015213;28;20458;-73
2021/07/06 05:33:39;;;;;;;1.30;0.83;;;;;;;20.28;92.62;100508.75;5023312;28;20451;-73
2021/07/06 05:36:06;;;;;;;1.60;1.50;;;;;;;20.27;92.50;100513.44;5034323;28;20458;-73
2021/07/06 05:38:32;;;;;;;1.33;1.00;;;;;;;20.29;93.41;100511.13;5017244;28;20464;-73
2021/07/06 05:41:01;;;;;;;1.70;0.93;;;;;;;20.32;92.92;100521.41;5017265;28;20794;-72
2021/07/06 05:43:28;;;;;;;1.93;1.57;;;;;;;20.35;92.50;100512.38;5016944;28;20942;-73
2021/07/06 05:45:55;;;;;;;1.17;1.03;;;;;;;20.47;92.02;100519.66;5017366;28;20443;-72
2021/07/06 05:48:22;;;;;;;1.00;0.90;;;;;;;20.56;92.77;100513.94;5016653;28;20495;-71
2021/07/06 05:50:49;;;;;;;1.40;0.97;;;;;;;20.59;94.66;100504.94;5017027;28;20448;-70
2021/07/06 05:53:15;;;;;;;0.93;0.90;;;;;;;20.58;95.21;100508.81;5018433;28;20444;-71
2021/07/06 05:55:43;;;;;;;0.90;0.90;;;;;;;20.62;93.30;100509.69;5017111;28;20462;-71
2021/07/06 05:58:11;;;;;;;1.27;0.90;;;;;;;20.76;93.03;100509.91;5016737;28;20499;-71
2021/07/06 06:00:38;;;;;;;1.37;1.10;;;;;;;20.81;93.45;100495.03;5016889;28;20443;-71
2021/07/06 06:03:08;;;;;;;1.60;1.10;;;;;;;20.85;91.11;100504.91;5016541;28;20519;-73
2021/07/06 06:05:34;;;;;;;1.97;1.40;;;;;;;20.96;90.24;100499.53;5016788;28;20460;-72
2021/07/06 06:08:01;;;;;;;3.47;1.23;;;;;;;21.10;89.84;100498.94;5016330;28;21002;-74
2021/07/06 06:10:27;;;;;;;0.70;0.67;;;;;;;21.15;90.69;100495.84;5016479;28;20951;-73
2021/07/06 06:12:54;;;;;;;1.27;1.03;;;;;;;21.09;88.97;100500.88;5016687;28;20448;-73
2021/07/06 06:15:21;;;;;;;0.70;0.63;;;;;;;21.20;88.91;100489.19;5016607;28;20812;-73
2021/07/06 06:17:48;;;;;;;1.40;1.30;;;;;;;21.31;88.08;100490.94;5016576;28;20460;-76
2021/07/06 06:20:15;;;;;;;1.10;0.90;;;;;;;21.44;87.32;100490.69;5016181;28;20443;-74
2021/07/06 06:22:42;;;;;;;0.93;0.83;;;;;;;21.54;86.48;100490.00;5016476;28;20448;-72
2021/07/06 06:25:10;;;;;;;1.13;0.93;;;;;;;21.63;86.27;100496.81;5016408;28;20474;-75
2021/07/06 06:27:36;;;;;;;0.83;0.83;;;;;;;21.74;85.53;100490.63;5016173;28;20484;-72
2021/07/06 06:30:04;;;;;;;0.77;0.63;;;;;;;21.78;86.38;100495.00;5016610;28;20440;-75
2021/07/06 06:32:32;;;;;;;0.93;0.87;;;;;;;21.82;86.90;100498.56;5016331;28;20436;-75
2021/07/06 06:34:58;;;;;;;1.60;0.93;;;;;;;21.88;84.96;100496.28;5016308;28;20444;-75
2021/07/06 06:37:25;;;;;;;1.47;0.87;;;;;;;21.99;83.59;100493.59;5031581;28;20450;-75
2021/07/06 06:39:51;;;;;;;1.20;0.80;;;;;;;22.14;84.31;100484.31;5036309;28;20442;-75
2021/07/06 06:42:18;;;;;;;2.27;1.07;;;;;;;22.23;84.94;100490.28;5035265;28;20443;-75
2021/07/06 06:44:44;;;;;;;1.10;1.00;;;;;;;22.25;83.80;100492.66;5026480;28;20947;-74
2021/07/06 06:47:11;;;;;;;0.73;0.70;;;;;;;22.33;82.47;100495.09;5022424;28;20440;-74
2021/07/06 06:49:39;;;;;;;1.77;1.03;;;;;;;22.48;81.80;100495.19;5019765;28;20492;-74
2021/07/06 06:52:06;;;;;;;1.30;1.20;;;;;;;22.64;81.78;100498.44;5030777;28;20450;-75
2021/07/06 06:54:34;;;;;;;0.80;0.80;;;;;;;22.75;81.85;100495.75;5030817;28;20948;-75
2021/07/06 06:57:01;;;;;;;1.10;0.90;;;;;;;22.87;81.00;100501.72;5029776;28;20448;-75
2021/07/06 06:59:28;;;;;;;7.23;1.20;;;;;;;22.94;80.24;100497.47;5035630;28;20459;-75
2021/07/06 07:04:35;;;;;;;1.17;0.80;;;;;;;23.17;79.59;100503.50;5034297;28;20482;-73
2021/07/06 07:07:03;;;;;;;1.00;0.80;;;;;;;23.29;78.91;100505.91;5035472;28;20453;-73
2021/07/06 07:09:29;;;;;;;3.10;1.10;;;;;;;23.35;78.06;100503.56;5035438;28;20581;-74
2021/07/06 07:11:56;;;;;;;1.10;0.80;;;;;;;23.36;79.54;100499.59;5035525;28;20451;-74
2021/07/06 07:14:22;;;;;;;1.60;1.20;;;;;;;23.42;79.42;100493.31;5035394;28;20482;-72
2021/07/06 07:16:50;;;;;;;1.37;0.97;;;;;;;23.45;78.86;100485.41;5035360;28;20534;-74
2021/07/06 07:19:17;;;;;;;1.20;1.10;;;;;;;23.44;77.43;100483.84;5035271;28;20463;-72
2021/07/06 07:21:44;;;;;;;1.03;0.93;;;;;;;23.46;76.59;100486.97;5035357;28;20878;-75
2021/07/06 07:24:11;;;;;;;2.60;1.37;;;;;;;23.36;76.34;100485.78;5035178;28;20451;-72
2021/07/06 07:26:38;;;;;;;0.90;0.90;;;;;;;23.27;76.29;100480.63;5034994;28;20450;-75
2021/07/06 07:29:05;;;;;;;0.80;0.63;;;;;;;23.33;75.96;100501.19;5035157;28;20501;-75
2021/07/06 07:31:32;;;;;;;0.60;0.60;;;;;;;23.33;74.32;100501.19;5035360;28;20481;-74
2021/07/06 07:33:59;;;;;;;0.90;0.80;;;;;;;23.41;75.00;100499.22;5034992;28;20479;-73
2021/07/06 07:36:26;;;;;;;1.20;0.80;;;;;;;23.41;75.46;100502.78;5035042;28;20525;-75
2021/07/06 07:38:53;;;;;;;0.60;0.60;;;;;;;23.50;75.89;100504.38;5034824;28;20470;-74
2021/07/06 07:41:21;;;;;;;1.10;0.90;;;;;;;23.58;74.69;100508.75;5034841;28;20447;-74
2021/07/06 07:43:49;;;;;;;1.13;0.87;;;;;;;23.67;72.62;100509.97;5034855;28;20439;-74
2021/07/06 07:46:16;;;;;;;1.27;0.60;;;;;;;23.81;73.15;100514.75;5034756;28;20557;-74
2021/07/06 07:48:45;;;;;;;1.07;0.90;;;;;;;23.90;72.60;100512.38;5034307;28;20552;-74
2021/07/06 07:51:11;;;;;;;1.13;0.73;;;;;;;23.99;72.56;100519.50;5034597;28;20451;-74
2021/07/06 07:53:38;;;;;;;4.33;1.10;;;;;;;24.03;72.13;100509.22;5034395;28;20443;-74
2021/07/06 07:56:05;;;;;;;1.17;0.70;;;;;;;24.06;73.26;100514.78;5034210;28;20944;-76
2021/07/06 07:58:33;;;;;;;1.47;0.93;;;;;;;24.11;73.77;100516.34;5034478;28;20459;-76
2021/07/06 08:00:59;;;;;;;0.63;0.63;;;;;;;24.16;72.79;100507.66;5034489;28;20439;-76
2021/07/06 08:03:26;;;;;;;3.33;1.00;;;;;;;24.20;72.15;100513.97;5034413;28;20949;-76
2021/07/06 08:05:52;;;;;;;1.97;1.00;;;;;;;24.23;71.97;100513.19;5034384;28;20447;-76
2021/07/06 08:08:19;;;;;;;3.53;1.00;;;;;;;24.22;71.28;100506.09;5028545;28;20495;-79
2021/07/06 08:10:47;;;;;;;1.70;1.03;;;;;;;24.25;72.94;100504.50;5014624;28;20486;-75
2021/07/06 08:13:16;;;;;;;0.80;0.73;;;;;;;24.23;74.19;100507.66;5014495;28;20502;-75
2021/07/06 08:15:43;;;;;;;0.77;0.73;;;;;;;24.28;73.49;100504.50;5015366;28;20545;-76
2021/07/06 08:18:10;;;;;;;0.80;0.73;;;;;;;24.38;72.62;100509.25;5021528;28;20843;-76
2021/07/06 08:20:36;;;;;;;1.13;0.90;;;;;;;24.42;71.49;100503.72;5022889;28;20452;-76
2021/07/06 08:23:03;;;;;;;1.30;1.20;;;;;;;24.57;70.41;100504.47;5031158;28;20455;-75
2021/07/06 08:25:29;;;;;;;3.30;1.50;;;;;;;24.72;71.36;100494.97;5018367;28;20523;-76
2021/07/06 08:27:56;;;;;;;0.80;0.80;;;;;;;24.82;70.07;100496.13;5027071;28;20487;-76
2021/07/06 08:30:22;;;;;;;0.70;0.70;;;;;;;24.85;69.34;100504.44;5014223;28;20862;-76
2021/07/06 08:32:50;;;;;;;1.77;1.30;;;;;;;24.88;70.27;100506.41;5020914;28;20443;-76
2021/07/06 08:35:16;;;;;;;3.63;0.80;;;;;;;24.96;69.56;100509.91;5033840;28;20443;-76
2021/07/06 08:37:43;;;;;;;1.47;1.20;;;;;;;24.98;70.15;100504.00;5033860;28;20471;-76
2021/07/06 08:40:11;;;;;;;0.60;0.60;;;;;;;24.90;67.79;100512.31;5033769;28;20446;-76
2021/07/06 08:42:38;;;;;;;1.03;0.77;;;;;;;24.88;70.53;100509.19;5024346;28;20443;-76
2021/07/06 08:45:06;;;;;;;0.90;0.80;;;;;;;24.89;68.57;100512.72;5025694;28;20479;-76
2021/07/06 08:47:33;;;;;;;0.80;0.70;;;;;;;24.89;67.32;100505.22;5037249;28;20482;-73
2021/07/06 08:50:02;;;;;;;1.20;0.97;;;;;;;24.95;69.02;100496.47;5033363;28;20467;-73
2021/07/06 08:52:29;;;;;;;0.87;0.87;;;;;;;24.97;69.38;100505.16;5032853;28;20439;-74
2021/07/06 08:54:56;;;;;;;1.37;1.00;;;;;;;24.98;69.33;100506.78;5028496;28;20833;-74
2021/07/06 08:57:23;;;;;;;1.47;1.10;;;;;;;25.03;67.61;100506.34;5025170;28;20530;-76
2021/07/06 08:59:50;;;;;;;1.27;0.87;;;;;;;25.11;67.84;100499.63;5030462;28;20444;-75
2021/07/06 09:02:21;;;;;;;0.90;0.57;;;;;;;25.15;68.53;100498.41;5024231;28;20443;-74
2021/07/06 09:04:51;;;;;;;0.93;0.93;;;;;;;25.23;65.25;100503.91;5018530;28;20487;-75
2021/07/06 09:07:19;;;;;;;2.50;0.97;;;;;;;25.29;64.61;100494.78;5012819;28;20478;-76
2021/07/06 09:09:47;;;;;;;6.53;0.97;;;;;;;25.39;67.22;100487.59;5013940;28;20492;-76
2021/07/06 09:12:14;;;;;;;1.07;0.80;;;;;;;25.43;68.52;100485.59;5017284;28;20447;-76
2021/07/06 09:14:44;;;;;;;1.00;0.90;;;;;;;25.51;68.44;100489.91;5013524;28;20548;-76
2021/07/06 09:17:12;;;;;;;1.03;0.93;;;;;;;25.54;64.40;100491.84;5013586;28;20470;-76
2021/07/06 09:19:41;;;;;;;1.43;0.90;;;;;;;25.69;63.60;100495.34;5013892;28;20440;-76
2021/07/06 09:22:13;;;;;;;0.77;0.70;;;;;;;25.76;62.29;100489.75;5013919;28;20448;-76
2021/07/06 09:24:41;;;;;;;0.90;0.80;;;;;;;25.85;63.48;100494.84;5013942;28;20441;-76
2021/07/06 09:27:26;;;;;;;1.77;0.70;;;;;;;25.87;61.68;100495.25;5013426;28;20443;-76
2021/07/06 09:30:14;;;;;;;0.70;0.70;;;;;;;25.90;62.84;100494.44;5013396;28;20471;-76
2021/07/06 09:32:43;;;;;;;0.80;0.60;;;;;;;25.98;62.42;100492.38;5013428;28;20436;-76
2021/07/06 09:35:11;;;;;;;1.60;1.30;;;;;;;26.00;60.90;100492.78;5013422;28;20455;-75
2021/07/06 09:37:49;;;;;;;0.70;0.67;;;;;;;26.07;61.89;100487.16;5013625;28;20460;-76
2021/07/06 09:40:29;;;;;;;2.50;0.80;;;;;;;26.15;61.87;100488.66;5013071;28;20902;-76
2021/07/06 09:43:16;;;;;;;1.30;0.97;;;;;;;26.24;61.65;100485.41;5013305;28;20435;-76
2021/07/06 09:45:48;;;;;;;0.80;0.77;;;;;;;26.24;65.78;100486.22;5013511;28;20432;-77
2021/07/06 09:48:15;;;;;;;0.70;0.70;;;;;;;26.27;62.01;100479.84;5013003;28;20480;-74
2021/07/06 09:50:41;;;;;;;0.73;0.73;;;;;;;26.39;61.21;100481.31;5013357;28;20439;-76
2021/07/06 09:53:26;;;;;;;0.87;0.63;;;;;;;26.45;62.28;100474.13;5013355;28;20836;-76
2021/07/06 09:55:54;;;;;;;1.30;0.90;;;;;;;26.49;61.95;100463.00;5013285;28;20427;-76
2021/07/06 09:58:21;;;;;;;2.33;0.70;;;;;;;26.53;61.64;100458.97;5013028;28;20448;-76
2021/07/06 10:00:49;;;;;;;0.93;0.87;;;;;;;26.70;60.97;100459.19;5013077;28;20447;-73
2021/07/06 10:03:16;;;;;;;1.00;0.80;;;;;;;26.85;59.99;100463.38;5012703;28;20973;-72
2021/07/06 10:05:44;;;;;;;0.90;0.80;;;;;;;26.96;59.34;100460.47;5012898;28;20459;-73
2021/07/06 10:08:11;;;;;;;0.80;0.80;;;;;;;27.01;57.24;100448.91;5012765;28;20502;-73
2021/07/06 10:10:38;;;;;;;1.10;0.80;;;;;;;27.07;62.40;100458.34;5012899;28;20471;-73
2021/07/06 10:13:06;;;;;;;0.53;0.53;;;;;;;27.02;57.07;100456.03;5012818;28;20498;-73
2021/07/06 10:15:33;;;;;;;1.87;0.87;;;;;;;27.06;55.87;100462.34;5012699;28;20938;-73
2021/07/06 10:17:59;;;;;;;0.67;0.67;;;;;;;27.05;57.27;100460.75;5014802;28;20463;-73
2021/07/06 10:20:28;;;;;;;0.80;0.80;;;;;;;27.08;60.48;100454.34;5016513;28;20440;-73
2021/07/06 10:22:56;;;;;;;1.47;0.73;;;;;;;27.16;56.96;100459.44;5016527;28;20446;-73
2021/07/06 10:25:26;;;;;;;0.70;0.60;;;;;;;27.28;56.96;100458.09;5016355;28;20451;-73
2021/07/06 10:27:56;;;;;;;0.63;0.63;;;;;;;27.37;54.88;100454.78;5016242;28;21051;-73
2021/07/06 10:30:28;;;;;;;0.80;0.80;;;;;;;27.47;56.46;100455.84;5016502;28;20476;-72
2021/07/06 10:32:56;;;;;;;0.50;0.50;;;;;;;27.55;55.69;100460.88;5016558;28;20428;-71
2021/07/06 10:35:48;;;;;;;1.17;0.77;;;;;;;27.54;52.61;100452.97;5016371;28;20443;-73
2021/07/06 10:38:40;;;;;;;0.70;0.60;;;;;;;27.61;55.71;100447.25;5016243;28;20899;-73
2021/07/06 10:41:08;;;;;;;0.70;0.70;;;;;;;27.58;53.65;100451.69;5025613;28;20478;-74
2021/07/06 10:43:50;;;;;;;0.70;0.60;;;;;;;27.67;52.49;100440.03;5017691;28;20817;-73
2021/07/06 10:46:31;;;;;;;0.67;0.63;;;;;;;27.79;54.96;100435.88;5029381;28;20411;-74
2021/07/06 10:49:00;;;;;;;1.13;0.77;;;;;;;27.82;52.23;100444.19;5029246;28;20492;-74
2021/07/06 10:51:48;;;;;;;2.97;0.67;;;;;;;27.88;52.08;100439.69;5032402;28;20851;-74
2021/07/06 10:54:17;;;;;;;1.47;0.80;;;;;;;27.99;52.56;100428.38;5035619;28;20443;-73
2021/07/06 10:56:46;;;;;;;5.20;0.70;;;;;;;28.12;52.72;100431.34;5035050;28;20443;-73
2021/07/06 10:59:20;;;;;;;0.73;0.70;;;;;;;28.23;51.69;100426.34;5035173;28;20467;-73
2021/07/06 11:01:59;;;;;;;0.67;0.63;;;;;;;28.37;54.76;100425.34;5035245;28;20450;-73
2021/07/06 11:05:03;;;;;;;1.10;0.90;;;;;;;28.47;51.89;100434.72;5035861;28;20439;-73
2021/07/06 11:07:58;;;;;;;0.70;0.70;;;;;;;28.57;50.30;100433.72;5035270;28;20916;-73
2021/07/06 11:10:43;;;;;;;0.60;0.60;;;;;;;28.71;52.46;100433.44;5035257;28;20997;-73
2021/07/06 11:13:21;;;;;;;0.70;0.70;;;;;;;28.91;51.39;100430.66;5035400;28;20932;-73
2021/07/06 11:15:48;;;;;;;0.60;0.50;;;;;;;29.15;51.45;100423.75;5035301;28;20425;-73
2021/07/06 11:18:16;;;;;;;0.60;0.57;;;;;;;29.37;50.36;100415.69;5035281;28;20469;-74
2021/07/06 11:20:44;;;;;;;0.80;0.67;;;;;;;29.79;52.56;100415.09;5035335;28;20819;-73
2021/07/06 11:23:16;;;;;;;1.13;0.53;;;;;;;30.24;46.35;100417.16;5035549;28;20561;-73
2021/07/06 11:25:47;;;;;;;0.50;0.50;;;;;;;30.93;48.41;100423.22;5035571;28;20419;-73
2021/07/06 11:28:17;;;;;;;0.90;0.80;;;;;;;31.70;46.14;100437.25;5034877;28;20494;-73